sensor_id;sensor_type;location;lat;lon;timestamp;P1;durP1;ratioP1;P2;durP2;ratioP2
24147;SDS011;12309;51.450;-2.624;2023-04-15T00:00:36;4.63;;;2.27;;
24147;SDS011;12309;51.450;-2.624;2023-04-15T00:03:02;2.43;;;1.77;;
24147;SDS011;12309;51.450;-2.624;2023-04-15T00:05:29;3.27;;;1.70;;
24147;SDS011;12309;51.450;-2.624;2023-04-15T00:07:55;4.03;;;2.10;;
24147;SDS011;12309;51.450;-2.624;2023-04-15T00:10:23;4.70;;;2.20;;
24147;SDS011;12309;51.450;-2.624;2023-04-15T00:12:49;3.73;;;1.97;;
24147;SDS011;12309;51.450;-2.624;2023-04-15T00:15:15;4.23;;;2.20;;
24147;SDS011;12309;51.450;-2.624;2023-04-15T00:17:40;5.03;;;2.20;;
24147;SDS011;12309;51.450;-2.624;2023-04-15T00:20:07;5.90;;;2.60;;
24147;SDS011;12309;51.450;-2.624;2023-04-15T00:22:33;5.03;;;2.40;;
24147;SDS011;12309;51.450;-2.624;2023-04-15T00:24:58;5.37;;;2.43;;
24147;SDS011;12309;51.450;-2.624;2023-04-15T00:27:24;8.27;;;2.30;;
24147;SDS011;12309;51.450;-2.624;2023-04-15T00:29:50;5.63;;;2.30;;
24147;SDS011;12309;51.450;-2.624;2023-04-15T00:32:15;4.63;;;2.63;;
24147;SDS011;12309;51.450;-2.624;2023-04-15T00:34:41;5.40;;;2.13;;
24147;SDS011;12309;51.450;-2.624;2023-04-15T00:37:07;3.97;;;2.30;;
24147;SDS011;12309;51.450;-2.624;2023-04-15T00:39:34;7.40;;;2.63;;
24147;SDS011;12309;51.450;-2.624;2023-04-15T00:41:59;3.37;;;2.13;;
24147;SDS011;12309;51.450;-2.624;2023-04-15T00:44:26;6.73;;;2.13;;
24147;SDS011;12309;51.450;-2.624;2023-04-15T00:46:53;5.23;;;2.50;;
24147;SDS011;12309;51.450;-2.624;2023-04-15T00:49:19;7.17;;;2.40;;
24147;SDS011;12309;51.450;-2.624;2023-04-15T00:51:45;4.80;;;2.40;;
24147;SDS011;12309;51.450;-2.624;2023-04-15T00:54:11;6.63;;;2.37;;
24147;SDS011;12309;51.450;-2.624;2023-04-15T00:56:37;7.67;;;2.27;;
24147;SDS011;12309;51.450;-2.624;2023-04-15T00:59:06;5.17;;;2.13;;
24147;SDS011;12309;51.450;-2.624;2023-04-15T01:01:32;5.80;;;2.00;;
24147;SDS011;12309;51.450;-2.624;2023-04-15T01:04:00;4.73;;;2.40;;
24147;SDS011;12309;51.450;-2.624;2023-04-15T01:06:26;6.57;;;2.20;;
24147;SDS011;12309;51.450;-2.624;2023-04-15T01:08:52;6.57;;;2.60;;
24147;SDS011;12309;51.450;-2.624;2023-04-15T01:11:18;5.77;;;2.07;;
24147;SDS011;12309;51.450;-2.624;2023-04-15T01:13:45;4.17;;;2.20;;
24147;SDS011;12309;51.450;-2.624;2023-04-15T01:16:11;5.27;;;2.60;;
24147;SDS011;12309;51.450;-2.624;2023-04-15T01:18:38;4.07;;;2.43;;
24147;SDS011;12309;51.450;-2.624;2023-04-15T01:21:05;7.40;;;2.60;;
24147;SDS011;12309;51.450;-2.624;2023-04-15T01:23:32;5.00;;;2.33;;
24147;SDS011;12309;51.450;-2.624;2023-04-15T01:26:00;6.27;;;2.33;;
24147;SDS011;12309;51.450;-2.624;2023-04-15T01:28:27;3.33;;;2.30;;
24147;SDS011;12309;51.450;-2.624;2023-04-15T01:31:06;5.03;;;2.10;;
24147;SDS011;12309;51.450;-2.624;2023-04-15T01:33:32;3.27;;;1.60;;
24147;SDS011;12309;51.450;-2.624;2023-04-15T01:35:58;4.83;;;2.20;;
24147;SDS011;12309;51.450;-2.624;2023-04-15T01:38:25;3.70;;;1.93;;
24147;SDS011;12309;51.450;-2.624;2023-04-15T01:40:51;6.10;;;1.70;;
24147;SDS011;12309;51.450;-2.624;2023-04-15T01:43:17;4.93;;;1.57;;
24147;SDS011;12309;51.450;-2.624;2023-04-15T01:45:43;4.93;;;2.00;;
24147;SDS011;12309;51.450;-2.624;2023-04-15T01:48:09;5.57;;;1.97;;
24147;SDS011;12309;51.450;-2.624;2023-04-15T01:50:36;3.00;;;1.90;;
24147;SDS011;12309;51.450;-2.624;2023-04-15T01:53:02;7.00;;;1.50;;
24147;SDS011;12309;51.450;-2.624;2023-04-15T01:55:28;6.97;;;1.80;;
24147;SDS011;12309;51.450;-2.624;2023-04-15T01:57:54;7.20;;;1.90;;
24147;SDS011;12309;51.450;-2.624;2023-04-15T02:00:20;5.27;;;1.93;;
24147;SDS011;12309;51.450;-2.624;2023-04-15T02:02:47;8.43;;;1.70;;
24147;SDS011;12309;51.450;-2.624;2023-04-15T02:05:12;4.93;;;1.80;;
24147;SDS011;12309;51.450;-2.624;2023-04-15T02:07:38;5.03;;;1.83;;
24147;SDS011;12309;51.450;-2.624;2023-04-15T02:10:04;11.73;;;2.33;;
24147;SDS011;12309;51.450;-2.624;2023-04-15T02:12:30;6.57;;;2.13;;
24147;SDS011;12309;51.450;-2.624;2023-04-15T02:14:55;5.93;;;1.97;;
24147;SDS011;12309;51.450;-2.624;2023-04-15T02:17:21;4.73;;;2.10;;
24147;SDS011;12309;51.450;-2.624;2023-04-15T02:19:47;2.43;;;1.70;;
24147;SDS011;12309;51.450;-2.624;2023-04-15T02:22:13;5.40;;;2.00;;
24147;SDS011;12309;51.450;-2.624;2023-04-15T02:24:42;3.97;;;1.70;;
24147;SDS011;12309;51.450;-2.624;2023-04-15T02:27:10;6.43;;;2.07;;
24147;SDS011;12309;51.450;-2.624;2023-04-15T02:29:39;7.67;;;1.90;;
24147;SDS011;12309;51.450;-2.624;2023-04-15T02:32:05;4.37;;;1.97;;
24147;SDS011;12309;51.450;-2.624;2023-04-15T02:34:31;2.93;;;1.90;;
24147;SDS011;12309;51.450;-2.624;2023-04-15T02:36:57;5.77;;;1.80;;
24147;SDS011;12309;51.450;-2.624;2023-04-15T02:39:23;7.30;;;2.40;;
24147;SDS011;12309;51.450;-2.624;2023-04-15T02:41:49;5.00;;;2.40;;
24147;SDS011;12309;51.450;-2.624;2023-04-15T02:44:17;7.53;;;3.00;;
24147;SDS011;12309;51.450;-2.624;2023-04-15T02:46:47;7.13;;;2.57;;
24147;SDS011;12309;51.450;-2.624;2023-04-15T02:49:16;7.40;;;2.43;;
24147;SDS011;12309;51.450;-2.624;2023-04-15T02:51:42;4.17;;;2.17;;
24147;SDS011;12309;51.450;-2.624;2023-04-15T02:54:09;4.87;;;2.43;;
24147;SDS011;12309;51.450;-2.624;2023-04-15T02:56:34;8.37;;;2.07;;
24147;SDS011;12309;51.450;-2.624;2023-04-15T02:59:00;7.57;;;2.10;;
24147;SDS011;12309;51.450;-2.624;2023-04-15T03:01:26;2.73;;;1.73;;
24147;SDS011;12309;51.450;-2.624;2023-04-15T03:03:51;3.97;;;1.90;;
24147;SDS011;12309;51.450;-2.624;2023-04-15T03:06:17;6.30;;;1.90;;
24147;SDS011;12309;51.450;-2.624;2023-04-15T03:08:42;6.10;;;1.90;;
24147;SDS011;12309;51.450;-2.624;2023-04-15T03:11:08;10.03;;;2.10;;
24147;SDS011;12309;51.450;-2.624;2023-04-15T03:13:34;4.27;;;1.83;;
24147;SDS011;12309;51.450;-2.624;2023-04-15T03:15:59;6.33;;;2.03;;
24147;SDS011;12309;51.450;-2.624;2023-04-15T03:18:25;4.70;;;1.80;;
24147;SDS011;12309;51.450;-2.624;2023-04-15T03:20:50;7.77;;;1.97;;
24147;SDS011;12309;51.450;-2.624;2023-04-15T03:23:16;5.17;;;1.80;;
24147;SDS011;12309;51.450;-2.624;2023-04-15T03:25:43;4.87;;;1.87;;
24147;SDS011;12309;51.450;-2.624;2023-04-15T03:28:09;5.63;;;2.00;;
24147;SDS011;12309;51.450;-2.624;2023-04-15T03:30:34;3.17;;;1.80;;
24147;SDS011;12309;51.450;-2.624;2023-04-15T03:33:00;6.73;;;2.00;;
24147;SDS011;12309;51.450;-2.624;2023-04-15T03:35:26;5.67;;;1.90;;
24147;SDS011;12309;51.450;-2.624;2023-04-15T03:37:51;7.80;;;2.00;;
24147;SDS011;12309;51.450;-2.624;2023-04-15T03:40:17;5.33;;;1.97;;
24147;SDS011;12309;51.450;-2.624;2023-04-15T03:42:42;4.20;;;1.97;;
24147;SDS011;12309;51.450;-2.624;2023-04-15T03:45:08;4.37;;;1.83;;
24147;SDS011;12309;51.450;-2.624;2023-04-15T03:47:34;6.00;;;2.10;;
24147;SDS011;12309;51.450;-2.624;2023-04-15T03:50:00;3.87;;;1.80;;
24147;SDS011;12309;51.450;-2.624;2023-04-15T03:52:25;4.27;;;2.50;;
24147;SDS011;12309;51.450;-2.624;2023-04-15T03:54:51;10.27;;;2.17;;
24147;SDS011;12309;51.450;-2.624;2023-04-15T03:57:17;4.17;;;2.00;;
24147;SDS011;12309;51.450;-2.624;2023-04-15T03:59:42;3.50;;;2.17;;
24147;SDS011;12309;51.450;-2.624;2023-04-15T04:02:08;4.17;;;2.20;;
24147;SDS011;12309;51.450;-2.624;2023-04-15T04:04:33;4.73;;;2.10;;
24147;SDS011;12309;51.450;-2.624;2023-04-15T04:06:59;4.63;;;1.87;;
24147;SDS011;12309;51.450;-2.624;2023-04-15T04:09:24;5.77;;;2.17;;
24147;SDS011;12309;51.450;-2.624;2023-04-15T04:11:50;7.67;;;2.40;;
24147;SDS011;12309;51.450;-2.624;2023-04-15T04:14:16;4.83;;;2.53;;
24147;SDS011;12309;51.450;-2.624;2023-04-15T04:16:41;9.57;;;2.70;;
24147;SDS011;12309;51.450;-2.624;2023-04-15T04:19:07;4.00;;;2.13;;
24147;SDS011;12309;51.450;-2.624;2023-04-15T04:21:33;5.33;;;2.20;;
24147;SDS011;12309;51.450;-2.624;2023-04-15T04:23:58;5.63;;;2.60;;
24147;SDS011;12309;51.450;-2.624;2023-04-15T04:26:24;10.03;;;3.60;;
24147;SDS011;12309;51.450;-2.624;2023-04-15T04:28:50;6.40;;;3.40;;
24147;SDS011;12309;51.450;-2.624;2023-04-15T04:31:15;7.20;;;3.07;;
24147;SDS011;12309;51.450;-2.624;2023-04-15T04:33:41;6.53;;;2.60;;
24147;SDS011;12309;51.450;-2.624;2023-04-15T04:36:07;9.97;;;3.83;;
24147;SDS011;12309;51.450;-2.624;2023-04-15T04:38:33;11.13;;;3.33;;
24147;SDS011;12309;51.450;-2.624;2023-04-15T04:40:59;6.73;;;2.40;;
24147;SDS011;12309;51.450;-2.624;2023-04-15T04:43:25;8.97;;;2.90;;
24147;SDS011;12309;51.450;-2.624;2023-04-15T04:45:51;10.53;;;2.67;;
24147;SDS011;12309;51.450;-2.624;2023-04-15T04:48:17;6.30;;;2.53;;
24147;SDS011;12309;51.450;-2.624;2023-04-15T04:50:43;6.33;;;2.10;;
24147;SDS011;12309;51.450;-2.624;2023-04-15T04:53:09;4.43;;;2.27;;
24147;SDS011;12309;51.450;-2.624;2023-04-15T04:55:35;5.97;;;2.13;;
24147;SDS011;12309;51.450;-2.624;2023-04-15T04:58:01;5.43;;;2.10;;
24147;SDS011;12309;51.450;-2.624;2023-04-15T05:00:27;7.57;;;2.40;;
24147;SDS011;12309;51.450;-2.624;2023-04-15T05:02:53;5.27;;;2.30;;
24147;SDS011;12309;51.450;-2.624;2023-04-15T05:05:19;6.93;;;2.60;;
24147;SDS011;12309;51.450;-2.624;2023-04-15T05:07:44;10.23;;;3.07;;
24147;SDS011;12309;51.450;-2.624;2023-04-15T05:10:11;6.13;;;3.03;;
24147;SDS011;12309;51.450;-2.624;2023-04-15T05:12:38;6.73;;;2.77;;
24147;SDS011;12309;51.450;-2.624;2023-04-15T05:15:04;5.13;;;2.90;;
24147;SDS011;12309;51.450;-2.624;2023-04-15T05:17:31;7.53;;;3.00;;
24147;SDS011;12309;51.450;-2.624;2023-04-15T05:19:59;10.23;;;2.83;;
24147;SDS011;12309;51.450;-2.624;2023-04-15T05:22:25;4.60;;;2.80;;
24147;SDS011;12309;51.450;-2.624;2023-04-15T05:24:50;5.27;;;2.70;;
24147;SDS011;12309;51.450;-2.624;2023-04-15T05:27:16;9.30;;;2.90;;
24147;SDS011;12309;51.450;-2.624;2023-04-15T05:29:43;11.77;;;3.00;;
24147;SDS011;12309;51.450;-2.624;2023-04-15T05:32:09;12.40;;;3.50;;
24147;SDS011;12309;51.450;-2.624;2023-04-15T05:34:35;7.27;;;3.07;;
24147;SDS011;12309;51.450;-2.624;2023-04-15T05:37:01;4.53;;;2.80;;
24147;SDS011;12309;51.450;-2.624;2023-04-15T05:39:27;6.23;;;3.13;;
24147;SDS011;12309;51.450;-2.624;2023-04-15T05:41:52;6.80;;;2.90;;
24147;SDS011;12309;51.450;-2.624;2023-04-15T05:44:18;9.60;;;3.43;;
24147;SDS011;12309;51.450;-2.624;2023-04-15T05:46:44;8.33;;;3.63;;
24147;SDS011;12309;51.450;-2.624;2023-04-15T05:49:09;11.30;;;3.57;;
24147;SDS011;12309;51.450;-2.624;2023-04-15T05:51:35;7.27;;;3.33;;
24147;SDS011;12309;51.450;-2.624;2023-04-15T05:54:01;7.77;;;3.20;;
24147;SDS011;12309;51.450;-2.624;2023-04-15T05:56:27;9.17;;;3.37;;
24147;SDS011;12309;51.450;-2.624;2023-04-15T05:58:52;6.40;;;3.03;;
24147;SDS011;12309;51.450;-2.624;2023-04-15T06:01:18;7.00;;;3.17;;
24147;SDS011;12309;51.450;-2.624;2023-04-15T06:03:45;6.93;;;2.97;;
24147;SDS011;12309;51.450;-2.624;2023-04-15T06:06:12;23.37;;;3.90;;
24147;SDS011;12309;51.450;-2.624;2023-04-15T06:08:39;6.63;;;3.37;;
24147;SDS011;12309;51.450;-2.624;2023-04-15T06:11:05;9.70;;;3.67;;
24147;SDS011;12309;51.450;-2.624;2023-04-15T06:13:31;8.90;;;3.83;;
24147;SDS011;12309;51.450;-2.624;2023-04-15T06:15:56;7.17;;;3.17;;
24147;SDS011;12309;51.450;-2.624;2023-04-15T06:18:22;6.27;;;3.17;;
24147;SDS011;12309;51.450;-2.624;2023-04-15T06:20:48;7.20;;;3.40;;
24147;SDS011;12309;51.450;-2.624;2023-04-15T06:23:13;5.30;;;3.27;;
24147;SDS011;12309;51.450;-2.624;2023-04-15T06:25:39;7.23;;;3.37;;
24147;SDS011;12309;51.450;-2.624;2023-04-15T06:28:05;6.93;;;3.77;;
24147;SDS011;12309;51.450;-2.624;2023-04-15T06:30:30;6.90;;;3.90;;
24147;SDS011;12309;51.450;-2.624;2023-04-15T06:32:56;11.50;;;4.23;;
24147;SDS011;12309;51.450;-2.624;2023-04-15T06:35:22;8.03;;;4.03;;
24147;SDS011;12309;51.450;-2.624;2023-04-15T06:37:48;4.50;;;2.87;;
24147;SDS011;12309;51.450;-2.624;2023-04-15T06:40:14;7.73;;;3.23;;
24147;SDS011;12309;51.450;-2.624;2023-04-15T06:42:39;6.03;;;2.87;;
24147;SDS011;12309;51.450;-2.624;2023-04-15T06:45:06;7.57;;;2.90;;
24147;SDS011;12309;51.450;-2.624;2023-04-15T06:47:32;9.53;;;4.37;;
24147;SDS011;12309;51.450;-2.624;2023-04-15T06:49:58;6.90;;;4.13;;
24147;SDS011;12309;51.450;-2.624;2023-04-15T06:52:24;15.13;;;7.77;;
24147;SDS011;12309;51.450;-2.624;2023-04-15T06:54:50;27.03;;;6.67;;
24147;SDS011;12309;51.450;-2.624;2023-04-15T06:57:15;9.83;;;4.67;;
24147;SDS011;12309;51.450;-2.624;2023-04-15T06:59:41;11.50;;;5.10;;
24147;SDS011;12309;51.450;-2.624;2023-04-15T07:02:07;6.57;;;3.20;;
24147;SDS011;12309;51.450;-2.624;2023-04-15T07:04:37;5.43;;;3.53;;
24147;SDS011;12309;51.450;-2.624;2023-04-15T07:07:03;4.40;;;3.00;;
24147;SDS011;12309;51.450;-2.624;2023-04-15T07:09:30;8.67;;;3.03;;
24147;SDS011;12309;51.450;-2.624;2023-04-15T07:11:56;4.53;;;2.50;;
24147;SDS011;12309;51.450;-2.624;2023-04-15T07:14:22;5.63;;;2.73;;
24147;SDS011;12309;51.450;-2.624;2023-04-15T07:16:47;6.50;;;2.97;;
24147;SDS011;12309;51.450;-2.624;2023-04-15T07:19:13;6.20;;;2.53;;
24147;SDS011;12309;51.450;-2.624;2023-04-15T07:21:38;4.37;;;2.80;;
24147;SDS011;12309;51.450;-2.624;2023-04-15T07:24:04;6.83;;;2.17;;
24147;SDS011;12309;51.450;-2.624;2023-04-15T07:26:30;6.43;;;2.10;;
24147;SDS011;12309;51.450;-2.624;2023-04-15T07:28:56;6.07;;;2.30;;
24147;SDS011;12309;51.450;-2.624;2023-04-15T07:31:21;4.07;;;2.07;;
24147;SDS011;12309;51.450;-2.624;2023-04-15T07:33:47;7.63;;;2.03;;
24147;SDS011;12309;51.450;-2.624;2023-04-15T07:36:13;6.00;;;2.43;;
24147;SDS011;12309;51.450;-2.624;2023-04-15T07:38:39;8.67;;;1.97;;
24147;SDS011;12309;51.450;-2.624;2023-04-15T07:41:04;6.17;;;2.13;;
24147;SDS011;12309;51.450;-2.624;2023-04-15T07:43:30;3.20;;;1.73;;
24147;SDS011;12309;51.450;-2.624;2023-04-15T07:45:56;4.37;;;1.97;;
24147;SDS011;12309;51.450;-2.624;2023-04-15T07:48:21;4.30;;;2.60;;
24147;SDS011;12309;51.450;-2.624;2023-04-15T07:50:47;8.30;;;2.70;;
24147;SDS011;12309;51.450;-2.624;2023-04-15T07:53:12;4.90;;;2.40;;
24147;SDS011;12309;51.450;-2.624;2023-04-15T07:55:38;3.97;;;1.97;;
24147;SDS011;12309;51.450;-2.624;2023-04-15T07:58:04;5.10;;;1.77;;
24147;SDS011;12309;51.450;-2.624;2023-04-15T08:00:30;4.07;;;1.83;;
24147;SDS011;12309;51.450;-2.624;2023-04-15T08:02:56;5.40;;;1.20;;
24147;SDS011;12309;51.450;-2.624;2023-04-15T08:05:23;3.63;;;1.10;;
24147;SDS011;12309;51.450;-2.624;2023-04-15T08:07:49;7.20;;;1.77;;
24147;SDS011;12309;51.450;-2.624;2023-04-15T08:10:15;2.67;;;1.00;;
24147;SDS011;12309;51.450;-2.624;2023-04-15T08:12:41;3.60;;;1.27;;
24147;SDS011;12309;51.450;-2.624;2023-04-15T08:15:07;2.90;;;0.90;;
24147;SDS011;12309;51.450;-2.624;2023-04-15T08:17:33;5.07;;;1.10;;
24147;SDS011;12309;51.450;-2.624;2023-04-15T08:19:59;4.75;;;1.10;;
24147;SDS011;12309;51.450;-2.624;2023-04-15T08:22:24;4.03;;;1.13;;
24147;SDS011;12309;51.450;-2.624;2023-04-15T08:24:51;5.10;;;1.40;;
24147;SDS011;12309;51.450;-2.624;2023-04-15T08:27:17;4.85;;;1.45;;
24147;SDS011;12309;51.450;-2.624;2023-04-15T08:29:42;5.78;;;1.27;;
24147;SDS011;12309;51.450;-2.624;2023-04-15T08:32:09;6.82;;;1.20;;
24147;SDS011;12309;51.450;-2.624;2023-04-15T08:34:35;5.95;;;1.55;;
24147;SDS011;12309;51.450;-2.624;2023-04-15T08:37:00;7.78;;;1.73;;
24147;SDS011;12309;51.450;-2.624;2023-04-15T08:39:26;8.45;;;1.52;;
24147;SDS011;12309;51.450;-2.624;2023-04-15T08:41:59;6.32;;;1.77;;
24147;SDS011;12309;51.450;-2.624;2023-04-15T08:44:28;5.90;;;1.60;;
24147;SDS011;12309;51.450;-2.624;2023-04-15T08:46:55;4.10;;;1.38;;
24147;SDS011;12309;51.450;-2.624;2023-04-15T08:49:25;5.63;;;1.60;;
24147;SDS011;12309;51.450;-2.624;2023-04-15T08:51:52;5.60;;;1.20;;
24147;SDS011;12309;51.450;-2.624;2023-04-15T08:54:20;7.25;;;1.77;;
24147;SDS011;12309;51.450;-2.624;2023-04-15T08:56:47;6.70;;;1.38;;
24147;SDS011;12309;51.450;-2.624;2023-04-15T08:59:13;6.40;;;1.38;;
24147;SDS011;12309;51.450;-2.624;2023-04-15T09:01:40;6.88;;;1.60;;
24147;SDS011;12309;51.450;-2.624;2023-04-15T09:04:06;6.28;;;1.80;;
24147;SDS011;12309;51.450;-2.624;2023-04-15T09:06:32;6.85;;;1.90;;
24147;SDS011;12309;51.450;-2.624;2023-04-15T09:08:58;5.88;;;1.42;;
24147;SDS011;12309;51.450;-2.624;2023-04-15T09:11:24;10.77;;;1.50;;
24147;SDS011;12309;51.450;-2.624;2023-04-15T09:13:50;7.72;;;1.70;;
24147;SDS011;12309;51.450;-2.624;2023-04-15T09:16:16;4.43;;;1.23;;
24147;SDS011;12309;51.450;-2.624;2023-04-15T09:18:42;5.68;;;1.60;;
24147;SDS011;12309;51.450;-2.624;2023-04-15T09:21:09;3.45;;;1.30;;
24147;SDS011;12309;51.450;-2.624;2023-04-15T09:23:40;6.80;;;1.50;;
24147;SDS011;12309;51.450;-2.624;2023-04-15T09:26:18;3.47;;;1.30;;
24147;SDS011;12309;51.450;-2.624;2023-04-15T09:28:43;4.80;;;1.50;;
24147;SDS011;12309;51.450;-2.624;2023-04-15T09:31:09;5.97;;;1.30;;
24147;SDS011;12309;51.450;-2.624;2023-04-15T09:33:35;12.13;;;1.63;;
24147;SDS011;12309;51.450;-2.624;2023-04-15T09:36:17;5.80;;;1.73;;
24147;SDS011;12309;51.450;-2.624;2023-04-15T09:41:21;6.57;;;1.30;;
24147;SDS011;12309;51.450;-2.624;2023-04-15T09:43:48;4.30;;;1.70;;
24147;SDS011;12309;51.450;-2.624;2023-04-15T09:46:13;6.75;;;1.80;;
24147;SDS011;12309;51.450;-2.624;2023-04-15T09:48:39;6.03;;;1.50;;
24147;SDS011;12309;51.450;-2.624;2023-04-15T09:51:05;5.82;;;1.30;;
24147;SDS011;12309;51.450;-2.624;2023-04-15T09:53:32;3.20;;;1.38;;
24147;SDS011;12309;51.450;-2.624;2023-04-15T09:55:59;6.28;;;1.45;;
24147;SDS011;12309;51.450;-2.624;2023-04-15T09:58:27;5.30;;;1.45;;
24147;SDS011;12309;51.450;-2.624;2023-04-15T10:00:53;4.80;;;1.30;;
24147;SDS011;12309;51.450;-2.624;2023-04-15T10:05:47;5.85;;;1.40;;
24147;SDS011;12309;51.450;-2.624;2023-04-15T10:08:16;7.15;;;1.52;;
24147;SDS011;12309;51.450;-2.624;2023-04-15T10:10:44;7.13;;;1.55;;
24147;SDS011;12309;51.450;-2.624;2023-04-15T10:13:18;5.00;;;1.45;;
24147;SDS011;12309;51.450;-2.624;2023-04-15T10:15:49;7.43;;;1.75;;
24147;SDS011;12309;51.450;-2.624;2023-04-15T10:18:19;6.38;;;1.30;;
24147;SDS011;12309;51.450;-2.624;2023-04-15T10:20:47;4.22;;;1.50;;
24147;SDS011;12309;51.450;-2.624;2023-04-15T10:23:14;5.10;;;1.33;;
24147;SDS011;12309;51.450;-2.624;2023-04-15T10:25:39;8.80;;;1.52;;
24147;SDS011;12309;51.450;-2.624;2023-04-15T10:28:06;3.67;;;1.40;;
24147;SDS011;12309;51.450;-2.624;2023-04-15T10:30:33;5.47;;;1.33;;
24147;SDS011;12309;51.450;-2.624;2023-04-15T10:32:59;6.75;;;1.40;;
24147;SDS011;12309;51.450;-2.624;2023-04-15T10:35:27;4.60;;;1.30;;
24147;SDS011;12309;51.450;-2.624;2023-04-15T10:37:54;5.70;;;1.25;;
24147;SDS011;12309;51.450;-2.624;2023-04-15T10:42:55;8.02;;;1.60;;
24147;SDS011;12309;51.450;-2.624;2023-04-15T10:45:26;7.18;;;1.52;;
24147;SDS011;12309;51.450;-2.624;2023-04-15T10:48:01;6.22;;;1.60;;
24147;SDS011;12309;51.450;-2.624;2023-04-15T10:50:29;3.72;;;1.20;;
24147;SDS011;12309;51.450;-2.624;2023-04-15T10:52:56;4.95;;;1.52;;
24147;SDS011;12309;51.450;-2.624;2023-04-15T10:55:23;5.93;;;1.60;;
24147;SDS011;12309;51.450;-2.624;2023-04-15T10:57:51;4.03;;;1.15;;
24147;SDS011;12309;51.450;-2.624;2023-04-15T11:00:18;6.55;;;1.30;;
24147;SDS011;12309;51.450;-2.624;2023-04-15T11:02:56;2.33;;;1.02;;
24147;SDS011;12309;51.450;-2.624;2023-04-15T11:05:47;5.65;;;1.50;;
24147;SDS011;12309;51.450;-2.624;2023-04-15T11:08:10;4.50;;;1.17;;
24147;SDS011;12309;51.450;-2.624;2023-04-15T11:13:03;4.55;;;1.30;;
24147;SDS011;12309;51.450;-2.624;2023-04-15T11:17:58;2.85;;;1.05;;
24147;SDS011;12309;51.450;-2.624;2023-04-15T11:20:38;5.60;;;1.33;;
24147;SDS011;12309;51.450;-2.624;2023-04-15T11:23:05;4.35;;;1.10;;
24147;SDS011;12309;51.450;-2.624;2023-04-15T11:25:32;5.13;;;1.45;;
24147;SDS011;12309;51.450;-2.624;2023-04-15T11:27:59;6.15;;;1.45;;
24147;SDS011;12309;51.450;-2.624;2023-04-15T11:30:27;5.80;;;1.25;;
24147;SDS011;12309;51.450;-2.624;2023-04-15T11:32:57;4.10;;;1.13;;
24147;SDS011;12309;51.450;-2.624;2023-04-15T11:35:24;4.18;;;1.08;;
24147;SDS011;12309;51.450;-2.624;2023-04-15T11:37:50;4.38;;;1.38;;
24147;SDS011;12309;51.450;-2.624;2023-04-15T11:40:16;4.65;;;1.50;;
24147;SDS011;12309;51.450;-2.624;2023-04-15T11:42:53;3.15;;;1.10;;
24147;SDS011;12309;51.450;-2.624;2023-04-15T11:48:25;3.05;;;1.10;;
24147;SDS011;12309;51.450;-2.624;2023-04-15T11:50:56;3.28;;;1.15;;
24147;SDS011;12309;51.450;-2.624;2023-04-15T11:53:24;3.75;;;1.35;;
24147;SDS011;12309;51.450;-2.624;2023-04-15T11:56:02;3.38;;;1.15;;
24147;SDS011;12309;51.450;-2.624;2023-04-15T11:58:28;3.85;;;1.60;;
24147;SDS011;12309;51.450;-2.624;2023-04-15T12:00:56;2.40;;;1.38;;
24147;SDS011;12309;51.450;-2.624;2023-04-15T12:03:36;7.68;;;1.70;;
24147;SDS011;12309;51.450;-2.624;2023-04-15T12:06:20;4.45;;;1.67;;
24147;SDS011;12309;51.450;-2.624;2023-04-15T12:13:52;4.07;;;1.20;;
24147;SDS011;12309;51.450;-2.624;2023-04-15T12:16:19;4.28;;;1.45;;
24147;SDS011;12309;51.450;-2.624;2023-04-15T12:18:46;3.08;;;1.20;;
24147;SDS011;12309;51.450;-2.624;2023-04-15T12:21:17;4.35;;;1.10;;
24147;SDS011;12309;51.450;-2.624;2023-04-15T12:23:53;4.97;;;1.60;;
24147;SDS011;12309;51.450;-2.624;2023-04-15T12:26:27;3.08;;;1.35;;
24147;SDS011;12309;51.450;-2.624;2023-04-15T12:29:00;4.15;;;1.40;;
24147;SDS011;12309;51.450;-2.624;2023-04-15T12:31:28;4.07;;;1.42;;
24147;SDS011;12309;51.450;-2.624;2023-04-15T12:33:54;2.78;;;1.20;;
24147;SDS011;12309;51.450;-2.624;2023-04-15T12:36:23;3.53;;;1.30;;
24147;SDS011;12309;51.450;-2.624;2023-04-15T12:38:49;2.80;;;1.20;;
24147;SDS011;12309;51.450;-2.624;2023-04-15T12:41:15;5.28;;;1.55;;
24147;SDS011;12309;51.450;-2.624;2023-04-15T12:43:40;3.25;;;1.02;;
24147;SDS011;12309;51.450;-2.624;2023-04-15T12:46:08;5.10;;;1.17;;
24147;SDS011;12309;51.450;-2.624;2023-04-15T12:48:35;3.70;;;1.10;;
24147;SDS011;12309;51.450;-2.624;2023-04-15T12:51:00;2.53;;;1.20;;
24147;SDS011;12309;51.450;-2.624;2023-04-15T12:53:26;3.72;;;1.42;;
24147;SDS011;12309;51.450;-2.624;2023-04-15T12:55:52;4.93;;;1.25;;
24147;SDS011;12309;51.450;-2.624;2023-04-15T12:58:18;3.42;;;1.10;;
24147;SDS011;12309;51.450;-2.624;2023-04-15T13:00:45;2.13;;;1.20;;
24147;SDS011;12309;51.450;-2.624;2023-04-15T13:03:11;5.28;;;1.08;;
24147;SDS011;12309;51.450;-2.624;2023-04-15T13:05:37;2.53;;;1.00;;
24147;SDS011;12309;51.450;-2.624;2023-04-15T13:08:03;5.45;;;1.20;;
24147;SDS011;12309;51.450;-2.624;2023-04-15T13:10:30;2.22;;;1.10;;
24147;SDS011;12309;51.450;-2.624;2023-04-15T13:12:55;4.53;;;1.17;;
24147;SDS011;12309;51.450;-2.624;2023-04-15T13:15:21;5.20;;;1.10;;
24147;SDS011;12309;51.450;-2.624;2023-04-15T13:17:47;4.40;;;1.10;;
24147;SDS011;12309;51.450;-2.624;2023-04-15T13:20:14;3.25;;;1.40;;
24147;SDS011;12309;51.450;-2.624;2023-04-15T13:22:39;3.22;;;1.20;;
24147;SDS011;12309;51.450;-2.624;2023-04-15T13:25:05;3.08;;;1.30;;
24147;SDS011;12309;51.450;-2.624;2023-04-15T13:27:32;3.50;;;1.27;;
24147;SDS011;12309;51.450;-2.624;2023-04-15T13:29:58;3.17;;;1.38;;
24147;SDS011;12309;51.450;-2.624;2023-04-15T13:32:23;4.28;;;1.27;;
24147;SDS011;12309;51.450;-2.624;2023-04-15T13:34:49;2.90;;;1.10;;
24147;SDS011;12309;51.450;-2.624;2023-04-15T13:37:15;5.72;;;1.63;;
24147;SDS011;12309;51.450;-2.624;2023-04-15T13:39:41;3.88;;;1.40;;
24147;SDS011;12309;51.450;-2.624;2023-04-15T13:42:06;2.97;;;0.98;;
24147;SDS011;12309;51.450;-2.624;2023-04-15T13:44:32;4.90;;;1.15;;
24147;SDS011;12309;51.450;-2.624;2023-04-15T13:46:57;2.72;;;1.02;;
24147;SDS011;12309;51.450;-2.624;2023-04-15T13:49:23;3.72;;;1.00;;
24147;SDS011;12309;51.450;-2.624;2023-04-15T13:51:49;2.13;;;1.15;;
24147;SDS011;12309;51.450;-2.624;2023-04-15T13:54:15;2.70;;;1.38;;
24147;SDS011;12309;51.450;-2.624;2023-04-15T13:56:41;1.27;;;0.85;;
24147;SDS011;12309;51.450;-2.624;2023-04-15T13:59:07;2.90;;;0.90;;
24147;SDS011;12309;51.450;-2.624;2023-04-15T14:01:33;4.35;;;1.20;;
24147;SDS011;12309;51.450;-2.624;2023-04-15T14:03:59;5.15;;;0.95;;
24147;SDS011;12309;51.450;-2.624;2023-04-15T14:06:25;3.25;;;1.08;;
24147;SDS011;12309;51.450;-2.624;2023-04-15T14:08:51;3.40;;;0.90;;
24147;SDS011;12309;51.450;-2.624;2023-04-15T14:11:18;2.17;;;0.90;;
24147;SDS011;12309;51.450;-2.624;2023-04-15T14:13:44;3.83;;;0.90;;
24147;SDS011;12309;51.450;-2.624;2023-04-15T14:16:09;3.22;;;1.02;;
24147;SDS011;12309;51.450;-2.624;2023-04-15T14:18:35;1.17;;;0.80;;
24147;SDS011;12309;51.450;-2.624;2023-04-15T14:21:01;3.17;;;1.08;;
24147;SDS011;12309;51.450;-2.624;2023-04-15T14:23:27;4.60;;;0.90;;
24147;SDS011;12309;51.450;-2.624;2023-04-15T14:25:53;2.10;;;1.10;;
24147;SDS011;12309;51.450;-2.624;2023-04-15T14:28:19;2.50;;;1.00;;
24147;SDS011;12309;51.450;-2.624;2023-04-15T14:30:44;2.25;;;0.90;;
24147;SDS011;12309;51.450;-2.624;2023-04-15T14:33:10;2.80;;;1.00;;
24147;SDS011;12309;51.450;-2.624;2023-04-15T14:35:36;2.97;;;0.80;;
24147;SDS011;12309;51.450;-2.624;2023-04-15T14:38:03;1.83;;;0.80;;
24147;SDS011;12309;51.450;-2.624;2023-04-15T14:40:30;2.70;;;0.98;;
24147;SDS011;12309;51.450;-2.624;2023-04-15T14:42:56;3.72;;;1.08;;
24147;SDS011;12309;51.450;-2.624;2023-04-15T14:45:22;2.78;;;1.20;;
24147;SDS011;12309;51.450;-2.624;2023-04-15T14:47:48;2.80;;;1.00;;
24147;SDS011;12309;51.450;-2.624;2023-04-15T14:50:13;2.00;;;1.00;;